createdAt,value
2017-02-04T00:00:32.281Z,20.52
2017-02-04T00:01:42.130Z,20.55
2017-02-04T00:02:52.370Z,20.48
2017-02-04T00:04:03.176Z,20.5
2017-02-04T00:05:13.727Z,20.54
2017-02-04T00:06:23.581Z,20.51
2017-02-04T00:07:33.465Z,20.5
2017-02-04T00:08:43.706Z,20.55
2017-02-04T00:09:53.949Z,20.51
2017-02-04T00:11:04.573Z,20.55
2017-02-04T00:12:14.831Z,20.57
2017-02-04T00:13:25.072Z,20.55
2017-02-04T00:14:34.539Z,20.51
2017-02-04T00:15:44.740Z,20.41
2017-02-04T00:16:54.998Z,20.55
2017-02-04T00:18:05.635Z,20.5
2017-02-04T00:19:15.880Z,20.51
2017-02-04T00:20:26.133Z,20.47
2017-02-04T00:21:36.731Z,20.54
2017-02-04T00:22:46.575Z,20.51
2017-02-04T00:23:56.433Z,20.39
2017-02-04T00:25:06.689Z,20.5
2017-02-04T00:26:16.941Z,20.5
2017-02-04T00:27:27.163Z,20.48
2017-02-04T00:28:37.440Z,20.48
2017-02-04T00:29:47.707Z,20.47
2017-02-04T00:30:58.343Z,20.54
2017-02-04T00:32:08.583Z,20.5
2017-02-04T00:33:18.703Z,20.54
2017-02-04T00:34:29.365Z,20.52
2017-02-04T00:35:39.619Z,20.5
2017-02-04T00:36:49.863Z,20.39
2017-02-04T00:38:00.514Z,20.51
2017-02-04T00:39:11.033Z,20.43
2017-02-04T00:40:21.669Z,20.43
2017-02-04T00:41:31.914Z,20.42
2017-02-04T00:42:42.561Z,20.48
2017-02-04T00:43:53.193Z,20.54
2017-02-04T00:45:02.958Z,20.54
2017-02-04T00:46:13.620Z,20.43
2017-02-04T00:47:24.265Z,20.54
2017-02-04T00:48:34.917Z,20.42
2017-02-04T00:49:45.158Z,20.42
2017-02-04T00:50:56.480Z,20.58
2017-02-04T00:52:06.743Z,20.48
2017-02-04T00:53:16.595Z,20.39
2017-02-04T00:54:27.231Z,20.48
2017-02-04T00:55:37.110Z,20.52
2017-02-04T00:56:47.607Z,20.47
2017-02-04T00:57:57.888Z,20.52
2017-02-04T00:59:07.378Z,20.52
2017-02-04T01:00:17.650Z,20.55
2017-02-04T01:01:27.907Z,20.55
2017-02-04T01:02:38.509Z,20.42
2017-02-04T01:03:48.763Z,20.52
2017-02-04T01:04:58.628Z,20.54
2017-02-04T01:06:08.873Z,20.47
2017-02-04T01:07:19.531Z,20.48
2017-02-04T01:08:30.309Z,20.52
2017-02-04T01:09:40.947Z,20.58
2017-02-04T01:10:51.582Z,20.51
2017-02-04T01:12:01.830Z,20.5
2017-02-04T01:13:12.080Z,20.58
2017-02-04T01:14:22.977Z,20.48
2017-02-04T01:15:33.617Z,20.51
2017-02-04T01:16:43.481Z,20.52
2017-02-04T01:17:53.337Z,20.55
2017-02-04T01:19:03.619Z,20.47
2017-02-04T01:20:14.012Z,20.55
2017-02-04T01:21:24.660Z,20.54
2017-02-04T01:22:34.910Z,20.48
2017-02-04T01:23:45.562Z,20.48
2017-02-04T01:24:55.407Z,20.48
2017-02-04T01:26:05.611Z,20.54
2017-02-04T01:27:16.261Z,20.48
2017-02-04T01:28:26.533Z,20.43
2017-02-04T01:29:37.190Z,20.54
2017-02-04T01:30:47.820Z,20.51
2017-02-04T01:31:58.763Z,20.43
2017-02-04T01:33:09.398Z,20.51
2017-02-04T01:34:20.052Z,20.48
2017-02-04T01:35:29.901Z,20.47
2017-02-04T01:36:40.168Z,20.5
2017-02-04T01:37:50.194Z,20.5
2017-02-04T01:38:59.658Z,20.54
2017-02-04T01:40:09.913Z,20.52
2017-02-04T01:41:20.165Z,20.52
2017-02-04T01:42:30.806Z,20.5
2017-02-04T01:43:40.987Z,20.55
2017-02-04T01:44:51.644Z,20.5
2017-02-04T01:46:01.128Z,20.54
2017-02-04T01:47:11.759Z,20.52
2017-02-04T01:48:22.027Z,20.5
2017-02-04T01:49:32.559Z,20.43
2017-02-04T01:50:43.192Z,20.48
2017-02-04T01:51:53.434Z,20.52
2017-02-04T01:53:02.903Z,20.51
2017-02-04T01:54:12.762Z,20.41
2017-02-04T01:55:23.553Z,20.42
2017-02-04T01:56:34.206Z,20.55
2017-02-04T01:57:44.048Z,20.52
2017-02-04T01:58:54.294Z,20.54
2017-02-04T02:00:04.569Z,20.51
2017-02-04T02:01:15.178Z,20.51
2017-02-04T02:02:25.804Z,20.41
2017-02-04T02:03:36.495Z,20.57
2017-02-04T02:04:47.143Z,20.51
2017-02-04T02:05:57.392Z,20.43
2017-02-04T02:07:07.915Z,20.43
2017-02-04T02:08:18.556Z,20.55
2017-02-04T02:09:28.822Z,20.54
2017-02-04T02:10:39.097Z,20.5
2017-02-04T02:11:49.723Z,20.55
2017-02-04T02:12:59.835Z,20.5
2017-02-04T02:14:10.096Z,20.55
2017-02-04T02:15:20.339Z,20.51
2017-02-04T02:16:30.990Z,20.58
2017-02-04T02:17:41.262Z,20.5
2017-02-04T02:18:52.272Z,20.51
2017-02-04T02:20:02.526Z,20.42
2017-02-04T02:21:12.783Z,20.41
2017-02-04T02:22:22.642Z,20.38
2017-02-04T02:23:33.275Z,20.43
2017-02-04T02:24:44.315Z,20.61
2017-02-04T02:25:54.940Z,20.5
2017-02-04T02:27:04.794Z,20.52
2017-02-04T02:28:14.717Z,20.43
2017-02-04T02:29:25.351Z,20.55
2017-02-04T02:30:35.953Z,20.55
2017-02-04T02:31:46.635Z,20.52
2017-02-04T02:32:56.890Z,20.58
2017-02-04T02:34:07.140Z,20.51
2017-02-04T02:35:17.402Z,20.51
2017-02-04T02:36:27.901Z,20.48
2017-02-04T02:37:37.767Z,20.52
2017-02-04T02:38:48.014Z,20.54
2017-02-04T02:39:58.270Z,20.58
2017-02-04T02:41:08.517Z,20.51
2017-02-04T02:42:19.037Z,20.52
2017-02-04T02:43:29.312Z,20.5
2017-02-04T02:44:39.577Z,20.5
2017-02-04T02:45:50.221Z,20.52
2017-02-04T02:47:00.890Z,20.52
2017-02-04T02:48:11.237Z,20.48
2017-02-04T02:49:21.872Z,20.52
2017-02-04T02:50:32.105Z,20.48
2017-02-04T02:51:41.570Z,20.5
2017-02-04T02:52:51.438Z,20.52
2017-02-04T02:54:02.249Z,20.43
2017-02-04T02:55:12.511Z,20.47
2017-02-04T02:56:22.541Z,20.5
2017-02-04T02:57:32.797Z,20.47
2017-02-04T02:58:43.438Z,20.47
2017-02-04T02:59:54.395Z,20.52
2017-02-04T03:01:04.296Z,20.54
2017-02-04T03:02:14.561Z,20.47
2017-02-04T03:03:24.815Z,20.51
2017-02-04T03:04:35.631Z,20.41
2017-02-04T03:05:46.254Z,20.52
2017-02-04T03:06:55.723Z,20.54
2017-02-04T03:08:05.976Z,20.51
2017-02-04T03:09:15.830Z,20.39
2017-02-04T03:10:26.472Z,20.43
2017-02-04T03:11:37.459Z,20.43
2017-02-04T03:12:48.121Z,20.47
2017-02-04T03:13:58.775Z,20.5
2017-02-04T03:15:09.044Z,20.47
2017-02-04T03:16:19.704Z,20.47
2017-02-04T03:17:29.851Z,20.5
2017-02-04T03:18:40.543Z,20.51
2017-02-04T03:19:50.018Z,20.5
2017-02-04T03:20:59.872Z,20.36
2017-02-04T03:22:09.781Z,20.39
2017-02-04T03:23:20.594Z,20.47
2017-02-04T03:24:30.850Z,20.52
2017-02-04T03:25:41.478Z,20.51
2017-02-04T03:26:50.943Z,20.43
2017-02-04T03:28:01.604Z,20.42
2017-02-04T03:29:12.479Z,20.47
2017-02-04T03:30:22.757Z,20.5
2017-02-04T03:31:33.399Z,20.57
2017-02-04T03:32:44.063Z,20.52
2017-02-04T03:33:54.692Z,20.36
2017-02-04T03:35:05.090Z,20.51
2017-02-04T03:36:14.965Z,20.55
2017-02-04T03:37:25.233Z,20.55
2017-02-04T03:38:35.503Z,20.42
2017-02-04T03:39:45.348Z,20.48
2017-02-04T03:40:55.187Z,20.47
2017-02-04T03:42:05.811Z,20.52
2017-02-04T03:43:16.448Z,20.51
2017-02-04T03:44:26.329Z,20.51
2017-02-04T03:45:36.183Z,20.48
2017-02-04T03:46:46.592Z,20.43
2017-02-04T03:47:57.285Z,20.47
2017-02-04T03:49:07.927Z,20.43
2017-02-04T03:50:17.783Z,20.39
2017-02-04T03:51:28.415Z,20.41
2017-02-04T03:52:39.340Z,20.5
2017-02-04T03:53:49.610Z,20.52
2017-02-04T03:54:59.858Z,20.41
2017-02-04T03:56:10.105Z,20.5
2017-02-04T03:57:20.379Z,20.42
2017-02-04T03:58:30.492Z,20.39
2017-02-04T03:59:40.749Z,20.42
2017-02-04T04:00:50.997Z,20.47
2017-02-04T04:02:01.243Z,20.42
2017-02-04T04:03:11.886Z,20.39
2017-02-04T04:04:22.518Z,20.41
2017-02-04T04:05:32.772Z,20.38
2017-02-04T04:06:43.179Z,20.43
2017-02-04T04:07:53.822Z,20.39
2017-02-04T04:09:04.091Z,20.42
2017-02-04T04:10:14.312Z,20.38
2017-02-04T04:11:24.960Z,20.39
2017-02-04T04:12:35.604Z,20.38
2017-02-04T04:13:46.240Z,20.36
2017-02-04T04:14:56.881Z,20.42
2017-02-04T04:16:07.656Z,20.38
2017-02-04T04:17:17.535Z,20.39
2017-02-04T04:18:28.177Z,20.36
2017-02-04T04:19:38.814Z,20.28
2017-02-04T04:20:49.082Z,20.41
2017-02-04T04:22:00.078Z,20.41
2017-02-04T04:23:10.712Z,20.32
2017-02-04T04:24:21.358Z,20.39
2017-02-04T04:25:31.629Z,20.36
2017-02-04T04:26:41.950Z,20.35
2017-02-04T04:27:52.531Z,20.35
2017-02-04T04:29:03.179Z,20.39
2017-02-04T04:30:13.440Z,20.36
2017-02-04T04:31:23.296Z,20.41
2017-02-04T04:32:33.554Z,20.36
2017-02-04T04:33:44.469Z,20.36
2017-02-04T04:34:54.368Z,20.42
2017-02-04T04:36:04.621Z,20.32
2017-02-04T04:37:14.881Z,20.38
2017-02-04T04:38:25.566Z,20.35
2017-02-04T04:39:36.443Z,20.38
2017-02-04T04:40:46.723Z,20.36
2017-02-04T04:41:56.581Z,20.28
2017-02-04T04:43:07.246Z,20.36
2017-02-04T04:44:17.502Z,20.39
2017-02-04T04:45:28.082Z,20.28
2017-02-04T04:46:38.740Z,20.39
2017-02-04T04:47:49.015Z,20.29
2017-02-04T04:48:58.521Z,20.32
2017-02-04T04:50:08.779Z,20.31
2017-02-04T04:51:19.525Z,20.32
2017-02-04T04:52:30.221Z,20.31
2017-02-04T04:53:40.469Z,20.28
2017-02-04T04:54:51.118Z,20.36
2017-02-04T04:56:01.781Z,20.32
2017-02-04T04:57:12.435Z,20.29
2017-02-04T04:58:23.082Z,20.31
2017-02-04T04:59:32.937Z,20.29
2017-02-04T05:00:43.631Z,20.29
2017-02-04T05:01:53.527Z,20.24
2017-02-04T05:03:04.119Z,20.28
2017-02-04T05:04:14.002Z,20.31
2017-02-04T05:05:24.275Z,20.24
2017-02-04T05:06:34.514Z,20.18
2017-02-04T05:07:45.190Z,20.28
2017-02-04T05:08:55.317Z,20.18
2017-02-04T05:10:05.983Z,20.28
2017-02-04T05:11:16.642Z,20.17
2017-02-04T05:12:26.914Z,20.18
2017-02-04T05:13:37.561Z,20.18
2017-02-04T05:14:48.179Z,20.29
2017-02-04T05:15:58.417Z,20.17
2017-02-04T05:17:08.666Z,20.2
2017-02-04T05:18:19.294Z,20.17
2017-02-04T05:19:29.540Z,20.17
2017-02-04T05:20:39.882Z,20.2
2017-02-04T05:21:50.141Z,20.13
2017-02-04T05:23:00.399Z,20.18
2017-02-04T05:24:11.036Z,20.21
2017-02-04T05:25:21.980Z,20.23
2017-02-04T05:26:32.720Z,20.16
2017-02-04T05:27:42.189Z,20.21
2017-02-04T05:28:52.422Z,20.14
2017-02-04T05:30:02.680Z,20.2
2017-02-04T05:31:11.766Z,20.16
2017-02-04T05:32:21.970Z,20.18
2017-02-04T05:33:32.603Z,20.2
2017-02-04T05:34:43.267Z,20.23
2017-02-04T05:35:53.913Z,20.17
2017-02-04T05:37:03.776Z,20.17
2017-02-04T05:38:14.679Z,20.21
2017-02-04T05:39:25.310Z,20.23
2017-02-04T05:40:35.974Z,20.24
2017-02-04T05:41:45.844Z,20.2
2017-02-04T05:42:55.644Z,20.2
2017-02-04T05:44:06.554Z,20.2
2017-02-04T05:45:16.407Z,20.18
2017-02-04T05:46:26.666Z,20.24
2017-02-04T05:47:36.914Z,20.23
2017-02-04T05:48:47.193Z,20.17
2017-02-04T05:49:57.923Z,20.23
2017-02-04T05:51:07.772Z,20.16
2017-02-04T05:52:17.649Z,20.24
2017-02-04T05:53:27.896Z,20.13
2017-02-04T05:54:38.542Z,20.17
2017-02-04T05:55:48.493Z,20.21
2017-02-04T05:56:58.759Z,20.16
2017-02-04T05:58:08.998Z,20.23
2017-02-04T05:59:18.847Z,20.11
2017-02-04T06:00:29.501Z,20.2
2017-02-04T06:01:40.478Z,20.17
2017-02-04T06:02:51.123Z,20.2
2017-02-04T06:04:01.766Z,20.21
2017-02-04T06:05:12.403Z,20.1
2017-02-04T06:06:22.661Z,20.14
2017-02-04T06:07:32.682Z,20.11
2017-02-04T06:08:42.924Z,20.14
2017-02-04T06:09:53.176Z,20.11
2017-02-04T06:11:03.048Z,20.13
2017-02-04T06:12:13.328Z,20.1
2017-02-04T06:13:23.733Z,20.17
2017-02-04T06:14:33.981Z,20.08
2017-02-04T06:15:44.613Z,20.11
2017-02-04T06:16:54.865Z,20.11
2017-02-04T06:18:05.506Z,20.1
2017-02-04T06:19:15.908Z,20.16
2017-02-04T06:20:25.805Z,20.08
2017-02-04T06:21:36.444Z,20.16
2017-02-04T06:22:47.121Z,20.1
2017-02-04T06:23:57.661Z,20.18
2017-02-04T06:25:07.762Z,20.1
2017-02-04T06:26:18.388Z,20.11
2017-02-04T06:27:29.043Z,20.13
2017-02-04T06:28:39.307Z,20.14
2017-02-04T06:29:49.155Z,20.05
2017-02-04T06:30:59.913Z,20.06
2017-02-04T06:32:09.759Z,20.11
2017-02-04T06:33:18.839Z,20.1
2017-02-04T06:34:29.115Z,20.06
2017-02-04T06:35:39.384Z,20.06
2017-02-04T06:36:49.785Z,20.06
2017-02-04T06:37:59.674Z,20.1
2017-02-04T06:39:10.328Z,20.1
2017-02-04T06:40:20.193Z,20.06
2017-02-04T06:41:30.830Z,20.03
2017-02-04T06:42:41.711Z,20.1
2017-02-04T06:43:51.589Z,20.06
2017-02-04T06:45:02.229Z,20.14
2017-02-04T06:46:12.865Z,20.13
2017-02-04T06:47:23.124Z,20.13
2017-02-04T06:48:33.675Z,20.11
2017-02-04T06:49:43.540Z,20.06
2017-02-04T06:50:53.793Z,20.13
2017-02-04T06:52:04.052Z,20.21
2017-02-04T06:53:14.322Z,20.11
2017-02-04T06:54:25.168Z,20.06
2017-02-04T06:55:35.438Z,20.14
2017-02-04T06:56:46.076Z,20.11
2017-02-04T06:57:56.319Z,20.11
2017-02-04T06:59:06.196Z,20.06
2017-02-04T07:00:16.798Z,20.11
2017-02-04T07:01:27.045Z,20.08
2017-02-04T07:02:37.743Z,20.13
2017-02-04T07:03:47.989Z,20.1
2017-02-04T07:04:57.857Z,20.21
2017-02-04T07:06:08.869Z,20.16
2017-02-04T07:07:19.135Z,20.14
2017-02-04T07:08:28.993Z,20.1
2017-02-04T07:09:39.673Z,20.11
2017-02-04T07:10:49.533Z,20.13
2017-02-04T07:12:00.104Z,20.1
2017-02-04T07:13:10.753Z,20.11
2017-02-04T07:14:20.999Z,20.08
2017-02-04T07:15:31.274Z,20.13
2017-02-04T07:16:41.922Z,20.1
2017-02-04T07:17:52.719Z,20.13
2017-02-04T07:19:03.375Z,20.11
2017-02-04T07:20:13.663Z,20.06
2017-02-04T07:21:24.334Z,20.08
2017-02-04T07:22:34.991Z,20.03
2017-02-04T07:23:45.880Z,20.08
2017-02-04T07:24:56.122Z,20.11
2017-02-04T07:26:06.785Z,20.14
2017-02-04T07:27:17.417Z,20.11
2017-02-04T07:28:28.102Z,20.1
2017-02-04T07:29:38.735Z,20.13
2017-02-04T07:30:49.439Z,20.16
2017-02-04T07:31:59.706Z,20.11
2017-02-04T07:33:10.709Z,20.21
2017-02-04T07:34:20.661Z,20.21
2017-02-04T07:35:31.282Z,20.23
2017-02-04T07:36:41.185Z,20.31
2017-02-04T07:37:51.831Z,20.32
2017-02-04T07:39:01.885Z,20.32
2017-02-04T07:40:12.132Z,20.5
2017-02-04T07:41:23.167Z,20.47
2017-02-04T07:42:33.807Z,20.54
2017-02-04T07:43:44.428Z,20.64
2017-02-04T07:44:54.685Z,20.69
2017-02-04T07:46:04.944Z,20.67
2017-02-04T07:47:15.444Z,20.82
2017-02-04T07:48:26.077Z,20.74
2017-02-04T07:49:36.333Z,20.85
2017-02-04T07:50:46.629Z,20.88
2017-02-04T07:51:56.908Z,20.95
2017-02-04T07:53:07.725Z,21.03
2017-02-04T07:54:18.355Z,21.03
2017-02-04T07:55:28.683Z,21.07
2017-02-04T07:56:39.341Z,21.07
2017-02-04T07:57:49.217Z,21.1
2017-02-04T07:58:59.464Z,21.22
2017-02-04T08:00:10.105Z,21.22
2017-02-04T08:01:20.768Z,21.32
2017-02-04T08:02:31.019Z,21.34
2017-02-04T08:03:41.709Z,21.37
2017-02-04T08:04:52.252Z,21.46
2017-02-04T08:06:02.492Z,21.42
2017-02-04T08:07:13.148Z,21.47
2017-02-04T08:08:23.829Z,21.58
2017-02-04T08:09:33.693Z,21.54
2017-02-04T08:10:44.581Z,21.54
2017-02-04T08:11:55.271Z,21.62
2017-02-04T08:13:05.930Z,21.65
2017-02-04T08:14:16.596Z,21.62
2017-02-04T08:15:26.894Z,21.67
2017-02-04T08:16:37.285Z,21.74
2017-02-04T08:17:47.569Z,21.74
2017-02-04T08:18:58.250Z,21.72
2017-02-04T08:20:08.899Z,21.88
2017-02-04T08:21:19.574Z,21.9
2017-02-04T08:22:30.575Z,21.82
2017-02-04T08:23:41.262Z,21.91
2017-02-04T08:24:51.500Z,21.91
2017-02-04T08:26:01.761Z,21.99
2017-02-04T08:27:12.406Z,21.98
2017-02-04T08:28:22.432Z,21.96
2017-02-04T08:29:33.065Z,21.96
2017-02-04T08:30:43.380Z,22.05
2017-02-04T08:31:54.027Z,22.09
2017-02-04T08:33:04.744Z,22.06
2017-02-04T08:34:15.277Z,22.06
2017-02-04T08:35:25.545Z,22.1
2017-02-04T08:36:35.401Z,22.14
2017-02-04T08:37:46.037Z,22.24
2017-02-04T08:38:56.314Z,22.14
2017-02-04T08:40:06.665Z,22.2
2017-02-04T08:41:17.297Z,22.18
2017-02-04T08:42:27.525Z,22.22
2017-02-04T08:43:37.785Z,22.25
2017-02-04T08:44:48.449Z,22.24
2017-02-04T08:45:59.036Z,22.25
2017-02-04T08:47:09.693Z,22.33
2017-02-04T08:48:19.956Z,22.33
2017-02-04T08:49:30.606Z,22.33
2017-02-04T08:50:40.856Z,22.43
2017-02-04T08:51:51.844Z,22.36
2017-02-04T08:53:00.947Z,22.4
2017-02-04T08:54:11.201Z,22.37
2017-02-04T08:55:21.451Z,22.47
2017-02-04T08:56:31.702Z,22.46
2017-02-04T08:57:42.175Z,22.39
2017-02-04T08:58:52.796Z,22.45
2017-02-04T09:00:03.057Z,22.39
2017-02-04T09:01:12.945Z,22.42
2017-02-04T09:02:22.795Z,22.43
2017-02-04T09:03:33.395Z,22.57
2017-02-04T09:04:42.875Z,22.52
2017-02-04T09:05:53.137Z,22.54
2017-02-04T09:07:03.381Z,22.65
2017-02-04T09:08:14.092Z,22.57
2017-02-04T09:09:24.248Z,22.57
2017-02-04T09:10:34.495Z,22.58
2017-02-04T09:11:44.791Z,22.72
2017-02-04T09:12:55.125Z,22.73
2017-02-04T09:14:05.817Z,22.67
2017-02-04T09:15:15.954Z,22.72
2017-02-04T09:16:26.591Z,22.7
2017-02-04T09:17:37.264Z,22.79
2017-02-04T09:18:47.142Z,22.7
2017-02-04T09:19:57.419Z,22.76
2017-02-04T09:21:08.106Z,22.83
2017-02-04T09:22:18.804Z,22.76
2017-02-04T09:23:28.463Z,22.82
2017-02-04T09:24:38.021Z,22.85
2017-02-04T09:25:47.878Z,22.92
2017-02-04T09:26:58.791Z,22.97
2017-02-04T09:28:09.447Z,22.98
2017-02-04T09:29:19.717Z,22.92
2017-02-04T09:30:29.975Z,22.9
2017-02-04T09:31:39.907Z,22.9
2017-02-04T09:32:51.166Z,22.98
2017-02-04T09:34:01.859Z,22.98
2017-02-04T09:35:12.118Z,23
2017-02-04T09:36:22.411Z,23
2017-02-04T09:37:32.291Z,23.1
2017-02-04T09:38:42.451Z,23.05
2017-02-04T09:39:52.310Z,23.05
2017-02-04T09:41:02.947Z,23.02
2017-02-04T09:42:12.823Z,23.02
2017-02-04T09:43:23.496Z,23.04
2017-02-04T09:44:33.644Z,23.05
2017-02-04T09:45:43.923Z,23.04
2017-02-04T09:46:54.202Z,23.13
2017-02-04T09:48:04.887Z,23.01
2017-02-04T09:49:14.762Z,23.01
2017-02-04T09:50:25.342Z,23.05
2017-02-04T09:51:34.439Z,23.04
2017-02-04T09:52:45.091Z,23.05
2017-02-04T09:53:55.341Z,23.01
2017-02-04T09:55:06.008Z,23.01
2017-02-04T09:56:16.913Z,23.05
2017-02-04T09:57:26.817Z,23.04
2017-02-04T09:58:36.708Z,23.02
2017-02-04T09:59:46.989Z,23
2017-02-04T10:00:56.859Z,23.07
2017-02-04T10:02:07.464Z,22.97
2017-02-04T10:03:17.437Z,23.02
2017-02-04T10:04:27.457Z,23.02
2017-02-04T10:05:37.745Z,22.98
2017-02-04T10:06:48.037Z,23.04
2017-02-04T10:07:58.231Z,23.04
2017-02-04T10:09:08.926Z,23.04
2017-02-04T10:10:19.175Z,22.97
2017-02-04T10:11:29.480Z,22.97
2017-02-04T10:12:38.954Z,23.01
2017-02-04T10:13:49.105Z,23
2017-02-04T10:14:59.056Z,23.02
2017-02-04T10:16:09.345Z,23.01
2017-02-04T10:17:19.639Z,22.97
2017-02-04T10:18:30.320Z,23.02
2017-02-04T10:19:40.896Z,23.01
2017-02-04T10:20:50.807Z,22.94
2017-02-04T10:22:00.669Z,22.97
2017-02-04T10:23:10.543Z,22.97
2017-02-04T10:24:21.273Z,22.92
2017-02-04T10:25:31.485Z,22.97
2017-02-04T10:26:41.026Z,22.94
2017-02-04T10:27:51.923Z,22.97
2017-02-04T10:29:02.171Z,22.91
2017-02-04T10:30:12.473Z,22.86
2017-02-04T10:31:22.642Z,22.9
2017-02-04T10:32:32.150Z,22.88
2017-02-04T10:33:42.415Z,22.88
2017-02-04T10:34:52.685Z,22.86
2017-02-04T10:36:02.575Z,22.83
2017-02-04T10:37:12.686Z,22.82
2017-02-04T10:38:22.938Z,22.77
2017-02-04T10:39:32.423Z,22.75
2017-02-04T10:40:43.075Z,22.7
2017-02-04T10:41:52.169Z,22.72
2017-02-04T10:43:03.080Z,22.65
2017-02-04T10:44:12.943Z,22.64
2017-02-04T10:45:23.351Z,22.67
2017-02-04T10:46:32.832Z,22.67
2017-02-04T10:47:43.497Z,22.6
2017-02-04T10:48:53.521Z,22.55
2017-02-04T10:50:03.785Z,22.55
2017-02-04T10:51:14.051Z,22.57
2017-02-04T10:52:24.341Z,22.57
2017-02-04T10:53:34.632Z,22.52
2017-02-04T10:54:45.514Z,22.45
2017-02-04T10:55:55.774Z,22.42
2017-02-04T10:57:06.415Z,22.49
2017-02-04T10:58:16.305Z,22.43
2017-02-04T10:59:26.969Z,22.39
2017-02-04T11:00:37.721Z,22.39
2017-02-04T11:01:48.139Z,22.37
2017-02-04T11:02:57.993Z,22.42
2017-02-04T11:04:08.380Z,22.36
2017-02-04T11:05:18.860Z,22.3
2017-02-04T11:06:28.637Z,22.35
2017-02-04T11:07:38.499Z,22.28
2017-02-04T11:08:49.174Z,22.31
2017-02-04T11:09:59.837Z,22.24
2017-02-04T11:11:10.109Z,22.25
2017-02-04T11:12:21.003Z,22.22
2017-02-04T11:13:31.662Z,22.12
2017-02-04T11:14:41.129Z,22.15
2017-02-04T11:15:51.779Z,22.2
2017-02-04T11:17:01.644Z,22.18
2017-02-04T11:18:11.769Z,22.21
2017-02-04T11:19:22.057Z,22.05
2017-02-04T11:20:32.742Z,22.07
2017-02-04T11:21:43.376Z,22.14
2017-02-04T11:22:53.408Z,22.06
2017-02-04T11:24:03.913Z,21.98
2017-02-04T11:25:14.200Z,21.91
2017-02-04T11:26:24.493Z,21.98
2017-02-04T11:27:35.153Z,22.02
2017-02-04T11:28:45.837Z,21.96
2017-02-04T11:29:55.947Z,21.98
2017-02-04T11:31:06.623Z,22
2017-02-04T11:32:16.901Z,21.99
2017-02-04T11:33:27.249Z,21.92
2017-02-04T11:34:37.144Z,21.98
2017-02-04T11:35:47.649Z,21.98
2017-02-04T11:36:58.337Z,22
2017-02-04T11:38:08.216Z,21.88
2017-02-04T11:39:18.879Z,22.03
2017-02-04T11:40:29.147Z,21.91
2017-02-04T11:41:40.444Z,21.91
2017-02-04T11:42:50.939Z,21.94
2017-02-04T11:44:01.224Z,21.83
2017-02-04T11:45:11.546Z,21.9
2017-02-04T11:46:21.812Z,21.9
2017-02-04T11:47:32.430Z,21.77
2017-02-04T11:48:42.354Z,21.84
2017-02-04T11:49:52.994Z,21.75
2017-02-04T11:51:03.628Z,21.79
2017-02-04T11:52:13.892Z,21.74
2017-02-04T11:53:24.718Z,21.74
2017-02-04T11:54:35.387Z,21.74
2017-02-04T11:55:46.078Z,21.69
2017-02-04T11:56:56.485Z,21.71
2017-02-04T11:58:07.135Z,21.69
2017-02-04T11:59:17.951Z,21.67
2017-02-04T12:00:28.209Z,21.65
2017-02-04T12:01:38.467Z,21.65
2017-02-04T12:02:48.622Z,21.64
2017-02-04T12:03:58.898Z,21.65
2017-02-04T12:05:09.491Z,21.58
2017-02-04T12:06:20.135Z,21.58
2017-02-04T12:07:30.007Z,21.62
2017-02-04T12:08:40.681Z,21.56
2017-02-04T12:09:50.193Z,21.53
2017-02-04T12:11:00.995Z,21.54
2017-02-04T12:12:11.242Z,21.56
2017-02-04T12:13:21.504Z,21.52
2017-02-04T12:14:32.148Z,21.5
2017-02-04T12:15:42.451Z,21.56
2017-02-04T12:16:53.035Z,21.56
2017-02-04T12:18:03.717Z,21.52
2017-02-04T12:19:14.383Z,21.5
2017-02-04T12:20:24.239Z,21.4
2017-02-04T12:21:34.119Z,21.35
2017-02-04T12:22:44.708Z,21.5
2017-02-04T12:23:55.362Z,21.4
2017-02-04T12:25:05.619Z,21.4
2017-02-04T12:26:15.872Z,21.42
2017-02-04T12:27:25.344Z,21.4
2017-02-04T12:28:35.760Z,21.42
2017-02-04T12:29:46.413Z,21.44
2017-02-04T12:30:56.685Z,21.47
2017-02-04T12:32:07.371Z,21.44
2017-02-04T12:33:17.233Z,21.38
2017-02-04T12:34:27.861Z,21.46
2017-02-04T12:35:38.118Z,21.43
2017-02-04T12:36:48.802Z,21.37
2017-02-04T12:37:59.075Z,21.4
2017-02-04T12:39:08.196Z,21.35
2017-02-04T12:40:19.210Z,21.34
2017-02-04T12:41:29.492Z,21.42
2017-02-04T12:42:39.761Z,21.38
2017-02-04T12:43:49.628Z,21.42
2017-02-04T12:44:59.890Z,21.42
2017-02-04T12:46:09.913Z,21.35
2017-02-04T12:47:19.789Z,21.31
2017-02-04T12:48:30.090Z,21.35
2017-02-04T12:49:40.350Z,21.37
2017-02-04T12:50:50.227Z,21.32
2017-02-04T12:52:00.443Z,21.27
2017-02-04T12:53:10.679Z,21.35
2017-02-04T12:54:20.917Z,21.31
2017-02-04T12:55:30.786Z,21.32
2017-02-04T12:56:41.492Z,21.31
2017-02-04T12:57:51.497Z,21.31
2017-02-04T12:59:02.137Z,21.27
2017-02-04T13:00:12.430Z,21.31
2017-02-04T13:01:23.077Z,21.27
2017-02-04T13:02:33.322Z,21.32
2017-02-04T13:03:43.910Z,21.34
2017-02-04T13:04:54.553Z,21.31
2017-02-04T13:06:04.805Z,21.35
2017-02-04T13:07:14.682Z,21.37
2017-02-04T13:08:24.544Z,21.38
2017-02-04T13:09:34.954Z,21.32
2017-02-04T13:10:45.342Z,21.4
2017-02-04T13:11:55.623Z,21.34
2017-02-04T13:13:06.300Z,21.4
2017-02-04T13:14:16.604Z,21.32
2017-02-04T13:15:27.609Z,21.38
2017-02-04T13:16:37.482Z,21.31
2017-02-04T13:17:48.128Z,21.34
2017-02-04T13:18:58.794Z,21.35
2017-02-04T13:20:08.652Z,21.37
2017-02-04T13:21:18.420Z,21.34
2017-02-04T13:22:28.320Z,21.32
2017-02-04T13:23:38.991Z,21.32
2017-02-04T13:24:48.484Z,21.27
2017-02-04T13:25:58.365Z,21.34
2017-02-04T13:27:08.930Z,21.32
2017-02-04T13:28:19.223Z,21.25
2017-02-04T13:29:29.517Z,21.29
2017-02-04T13:30:39.006Z,21.28
2017-02-04T13:31:49.265Z,21.29
2017-02-04T13:33:00.323Z,21.25
2017-02-04T13:34:11.014Z,21.22
2017-02-04T13:35:21.690Z,21.27
2017-02-04T13:36:32.357Z,21.24
2017-02-04T13:37:42.262Z,21.29
2017-02-04T13:38:53.182Z,21.27
2017-02-04T13:40:03.469Z,21.28
2017-02-04T13:41:13.367Z,21.24
2017-02-04T13:42:24.005Z,21.28
2017-02-04T13:43:34.646Z,21.28
2017-02-04T13:44:45.535Z,21.25
2017-02-04T13:45:55.793Z,21.28
2017-02-04T13:47:06.468Z,21.24
2017-02-04T13:48:16.725Z,21.29
2017-02-04T13:49:26.619Z,21.29
2017-02-04T13:50:37.876Z,21.29
2017-02-04T13:51:48.112Z,21.25
2017-02-04T13:52:57.991Z,21.24
2017-02-04T13:54:08.630Z,21.24
2017-02-04T13:55:18.932Z,21.28
2017-02-04T13:56:29.929Z,21.24
2017-02-04T13:57:40.573Z,21.31
2017-02-04T13:58:50.822Z,21.27
2017-02-04T14:00:01.459Z,21.27
2017-02-04T14:01:10.918Z,21.28
2017-02-04T14:02:21.706Z,21.28
2017-02-04T14:03:32.341Z,21.25
2017-02-04T14:04:43.028Z,21.24
2017-02-04T14:05:53.286Z,21.21
2017-02-04T14:07:03.565Z,21.25
2017-02-04T14:08:14.068Z,21.24
2017-02-04T14:09:24.315Z,21.28
2017-02-04T14:10:34.557Z,21.22
2017-02-04T14:11:44.803Z,21.27
2017-02-04T14:12:55.454Z,21.19
2017-02-04T14:14:06.406Z,21.22
2017-02-04T14:15:16.707Z,21.28
2017-02-04T14:16:26.585Z,21.16
2017-02-04T14:17:37.240Z,21.25
2017-02-04T14:18:47.490Z,21.19
2017-02-04T14:19:57.446Z,21.16
2017-02-04T14:21:07.307Z,21.19
2017-02-04T14:22:17.167Z,21.21
2017-02-04T14:23:27.803Z,21.19
2017-02-04T14:24:38.057Z,21.14
2017-02-04T14:25:48.547Z,21.1
2017-02-04T14:26:58.814Z,21.14
2017-02-04T14:28:09.054Z,21.13
2017-02-04T14:29:19.307Z,21.14
2017-02-04T14:30:29.217Z,20.99
2017-02-04T14:31:39.628Z,20.92
2017-02-04T14:32:49.870Z,20.82
2017-02-04T14:34:00.128Z,20.88
2017-02-04T14:35:10.379Z,20.88
2017-02-04T14:36:20.623Z,20.84
2017-02-04T14:37:31.152Z,20.82
2017-02-04T14:38:41.789Z,20.84
2017-02-04T14:39:51.675Z,20.92
2017-02-04T14:41:01.531Z,20.84
2017-02-04T14:42:11.786Z,20.92
2017-02-04T14:43:22.775Z,20.92
2017-02-04T14:44:32.623Z,20.85
2017-02-04T14:45:42.862Z,20.94
2017-02-04T14:46:53.108Z,20.95
2017-02-04T14:48:03.742Z,20.97
2017-02-04T14:49:14.338Z,20.95
2017-02-04T14:50:24.199Z,20.97
2017-02-04T14:51:34.437Z,20.99
2017-02-04T14:52:44.701Z,20.99
2017-02-04T14:53:54.562Z,20.94
2017-02-04T14:55:05.469Z,21.06
2017-02-04T14:56:15.317Z,21.04
2017-02-04T14:57:25.163Z,21.06
2017-02-04T14:58:35.810Z,21.03
2017-02-04T14:59:46.448Z,21.06
2017-02-04T15:00:56.876Z,21.14
2017-02-04T15:02:06.367Z,21.1
2017-02-04T15:03:17.009Z,21.13
2017-02-04T15:04:27.260Z,21.17
2017-02-04T15:05:37.522Z,21.16
2017-02-04T15:06:47.604Z,21.22
2017-02-04T15:07:57.456Z,21.13
2017-02-04T15:09:08.101Z,21.22